Time;durP1;ratioP1;P1;durP2;ratioP2;P2;SDS_P1;SDS_P2;PMS_P1;PMS_P2;Temp;Humidity;BMP_temperature;BMP_pressure;BME280_temperature;BME280_humidity;BME280_pressure;Samples;Min_cycle;Max_cycle;Signal;HPM_P1;HPM_P2
2024/01/31 00:00:47;;;;;;;;;;;7.00;99.90;;;;;;5103863;27;19964;-89
2024/01/31 00:03:13;;;;;;;;;;;6.90;99.90;;;;;;5119817;27;20285;-89
2024/01/31 00:05:38;;;;;;;;;;;7.00;99.90;;;;;;5102609;27;19998;-89
2024/01/31 00:08:04;;;;;;;;;;;7.00;99.90;;;;;;5102771;27;19936;-89
2024/01/31 00:10:29;;;;;;;;;;;7.00;99.90;;;;;;5103259;27;19919;-89
2024/01/31 00:12:55;;;;;;;;;;;7.00;99.90;;;;;;5103044;27;19919;-88
2024/01/31 00:15:20;;;;;;;;;;;7.10;99.90;;;;;;5102988;27;19915;-89
2024/01/31 00:17:46;;;;;;;;;;;7.00;99.90;;;;;;5103608;27;19911;-89
2024/01/31 00:20:12;;;;;;;;;;;7.00;99.90;;;;;;5102409;27;19983;-89
2024/01/31 00:22:37;;;;;;;;;;;7.00;99.90;;;;;;5117485;27;20286;-87
2024/01/31 00:25:03;;;;;;;;;;;7.00;99.90;;;;;;5096698;28;20334;-88
2024/01/31 00:27:29;;;;;;;;;;;7.00;99.90;;;;;;5098575;28;20540;-88
2024/01/31 00:29:54;;;;;;;;;;;7.00;99.90;;;;;;5099435;28;19915;-88
2024/01/31 00:32:20;;;;;;;;;;;7.00;99.90;;;;;;5099536;28;19919;-88
2024/01/31 00:34:45;;;;;;;;;;;7.00;99.90;;;;;;5115407;28;19920;-89
2024/01/31 00:37:11;;;;;;;;;;;7.00;99.90;;;;;;5099319;28;19912;-88
2024/01/31 00:39:37;;;;;;;;;;;7.00;99.90;;;;;;5117170;28;19908;-89
2024/01/31 00:42:02;;;;;;;;;;;7.00;99.90;;;;;;5117700;28;19926;-89
2024/01/31 00:44:28;;;;;;;;;;;7.00;99.90;;;;;;5098966;28;19963;-89
2024/01/31 00:46:54;;;;;;;;;;;7.00;99.90;;;;;;5116213;28;19958;-89
2024/01/31 00:49:19;;;;;;;;;;;7.00;99.90;;;;;;5098679;28;19908;-89
2024/01/31 00:51:45;;;;;;;;;;;6.90;99.90;;;;;;5098133;28;19915;-89
2024/01/31 00:54:12;;;;;;;;;;;6.90;99.90;;;;;;5098280;28;19928;-89
2024/01/31 00:56:38;;;;;;;;;;;6.90;99.90;;;;;;5099047;28;19946;-89
2024/01/31 00:59:03;;;;;;;;;;;6.90;99.90;;;;;;5098396;28;19912;-89
2024/01/31 01:01:29;;;;;;;;;;;6.90;99.90;;;;;;5097992;28;19912;-89
2024/01/31 01:03:54;;;;;;;;;;;6.90;99.90;;;;;;5097299;28;19912;-89
2024/01/31 01:06:20;;;;;;;;;;;6.90;99.90;;;;;;5114278;28;20438;-89
2024/01/31 01:08:46;;;;;;;;;;;6.90;99.90;;;;;;5097371;28;20046;-89
2024/01/31 01:11:11;;;;;;;;;;;6.90;99.90;;;;;;5098784;28;19919;-89
2024/01/31 01:13:37;;;;;;;;;;;6.90;99.90;;;;;;5098447;28;19926;-89
2024/01/31 01:16:03;;;;;;;;;;;6.90;99.90;;;;;;5097486;28;19911;-89
2024/01/31 01:18:28;;;;;;;;;;;6.90;99.90;;;;;;5116428;28;19965;-89
2024/01/31 01:20:54;;;;;;;;;;;6.90;99.90;;;;;;5098263;28;19918;-89
2024/01/31 01:23:20;;;;;;;;;;;6.90;99.90;;;;;;5097713;28;19938;-88
2024/01/31 01:25:45;;;;;;;;;;;6.90;99.90;;;;;;5098118;28;19919;-88
2024/01/31 01:28:11;;;;;;;;;;;6.90;99.90;;;;;;5097792;28;19923;-89
2024/01/31 01:30:37;;;;;;;;;;;6.90;99.90;;;;;;5094359;28;19912;-89
2024/01/31 01:33:03;;;;;;;;;;;6.90;99.90;;;;;;5098445;28;19919;-88
2024/01/31 01:35:29;;;;;;;;;;;6.90;99.90;;;;;;5097478;28;19911;-89
2024/01/31 01:37:54;;;;;;;;;;;6.90;99.90;;;;;;5081713;28;19961;-89
2024/01/31 01:40:20;;;;;;;;;;;6.90;99.90;;;;;;5099060;28;19912;-89
2024/01/31 01:42:46;;;;;;;;;;;6.90;99.90;;;;;;5100559;28;19915;-89
2024/01/31 01:45:11;;;;;;;;;;;6.90;99.90;;;;;;5115645;28;19947;-89
2024/01/31 01:47:41;;;;;;;;;;;6.90;99.90;;;;;;5102522;28;19951;-89
2024/01/31 01:50:08;;;;;;;;;;;6.90;99.90;;;;;;5112592;28;19934;-88
2024/01/31 01:52:34;;;;;;;;;;;6.90;99.90;;;;;;5116288;28;19923;-86
2024/01/31 01:55:03;;;;;;;;;;;6.90;99.90;;;;;;5115852;28;20003;-88
2024/01/31 01:57:32;;;;;;;;;;;6.90;99.90;;;;;;5115276;28;19919;-87
2024/01/31 01:59:58;;;;;;;;;;;6.90;99.90;;;;;;5102038;28;20379;-89
2024/01/31 02:02:24;;;;;;;;;;;6.90;99.90;;;;;;5098939;28;19919;-87
2024/01/31 02:04:50;;;;;;;;;;;6.90;99.90;;;;;;5098376;28;20359;-87
2024/01/31 02:07:20;;;;;;;;;;;6.90;99.90;;;;;;5098423;28;19933;-87
2024/01/31 02:09:46;;;;;;;;;;;6.90;99.90;;;;;;5097643;28;20366;-87
2024/01/31 02:12:12;;;;;;;;;;;6.80;99.90;;;;;;5097663;28;19990;-86
2024/01/31 02:14:37;;;;;;;;;;;6.80;99.90;;;;;;5095007;28;20010;-88
2024/01/31 02:17:03;;;;;;;;;;;6.80;99.90;;;;;;5096702;28;19919;-87
2024/01/31 02:19:29;;;;;;;;;;;6.80;99.90;;;;;;5097326;28;19912;-88
2024/01/31 02:21:56;;;;;;;;;;;6.70;99.90;;;;;;5097287;28;20405;-87
2024/01/31 02:24:21;;;;;;;;;;;6.70;99.90;;;;;;5096797;28;19916;-87
2024/01/31 02:26:47;;;;;;;;;;;6.70;99.90;;;;;;5096431;28;20309;-87
2024/01/31 02:29:13;;;;;;;;;;;6.70;99.90;;;;;;5113576;28;19912;-88
2024/01/31 02:31:38;;;;;;;;;;;6.70;99.90;;;;;;5096347;28;19922;-88
2024/01/31 02:34:04;;;;;;;;;;;6.70;99.90;;;;;;5096874;28;20275;-87
2024/01/31 02:36:29;;;;;;;;;;;6.70;99.90;;;;;;5092806;28;19957;-87
2024/01/31 02:38:55;;;;;;;;;;;6.70;99.90;;;;;;5112950;28;19920;-88
2024/01/31 02:41:20;;;;;;;;;;;6.70;99.90;;;;;;5113976;28;20674;-88
2024/01/31 02:43:46;;;;;;;;;;;6.60;99.90;;;;;;5097200;28;20430;-87
2024/01/31 02:46:12;;;;;;;;;;;6.60;99.90;;;;;;5097411;28;19915;-87
2024/01/31 02:48:37;;;;;;;;;;;6.60;99.90;;;;;;5096142;28;19908;-88
2024/01/31 02:51:03;;;;;;;;;;;6.60;99.90;;;;;;5096170;28;19912;-88
2024/01/31 02:53:28;;;;;;;;;;;6.60;99.90;;;;;;5096677;28;19915;-88
2024/01/31 02:55:54;;;;;;;;;;;6.60;99.90;;;;;;5097111;28;19922;-88
2024/01/31 02:58:19;;;;;;;;;;;6.60;99.90;;;;;;5096950;28;20291;-87
2024/01/31 03:00:45;;;;;;;;;;;6.60;99.90;;;;;;5096238;28;20365;-88
2024/01/31 03:03:10;;;;;;;;;;;6.60;99.90;;;;;;5096489;28;19963;-88
2024/01/31 03:05:36;;;;;;;;;;;6.60;99.90;;;;;;5096045;28;19919;-88
2024/01/31 03:08:02;;;;;;;;;;;6.70;99.90;;;;;;5096200;28;20026;-87
2024/01/31 03:10:27;;;;;;;;;;;6.60;99.90;;;;;;5130824;28;20354;-88
2024/01/31 03:12:53;;;;;;;;;;;6.60;99.90;;;;;;5097053;28;19912;-88
2024/01/31 03:15:18;;;;;;;;;;;6.60;99.90;;;;;;5096894;28;20330;-88
2024/01/31 03:17:44;;;;;;;;;;;6.60;99.90;;;;;;5114331;28;19912;-88
2024/01/31 03:20:10;;;;;;;;;;;6.60;99.90;;;;;;5095449;28;19930;-88
2024/01/31 03:22:35;;;;;;;;;;;6.50;99.90;;;;;;5096356;28;19915;-87
2024/01/31 03:25:01;;;;;;;;;;;6.50;99.90;;;;;;5095244;28;19922;-88
2024/01/31 03:30:55;;;;;;;;;;;6.40;99.90;;;;;;5118020;28;19962;-88
2024/01/31 03:33:20;;;;;;;;;;;6.40;99.90;;;;;;5100554;28;19953;-87
2024/01/31 03:35:46;;;;;;;;;;;6.40;99.90;;;;;;5100218;28;20400;-88
2024/01/31 03:38:11;;;;;;;;;;;6.30;99.90;;;;;;5099360;28;20404;-88
2024/01/31 03:40:37;;;;;;;;;;;6.30;99.90;;;;;;5116111;28;19919;-88
2024/01/31 03:43:03;;;;;;;;;;;6.30;99.90;;;;;;5095908;28;19919;-87
2024/01/31 03:45:28;;;;;;;;;;;6.30;99.90;;;;;;5099971;28;19912;-87
2024/01/31 03:47:54;;;;;;;;;;;6.30;99.90;;;;;;5099082;28;20549;-87
2024/01/31 03:50:20;;;;;;;;;;;6.30;99.90;;;;;;5115902;28;19915;-87
2024/01/31 03:52:45;;;;;;;;;;;6.30;99.90;;;;;;5099542;28;19930;-87
2024/01/31 03:55:11;;;;;;;;;;;6.30;99.90;;;;;;5099361;28;20014;-88
2024/01/31 03:57:37;;;;;;;;;;;6.30;99.90;;;;;;5099241;28;20278;-87
2024/01/31 04:00:04;;;;;;;;;;;6.20;99.90;;;;;;5099141;28;19970;-87
2024/01/31 04:02:31;;;;;;;;;;;6.20;99.90;;;;;;5098635;28;19915;-86
2024/01/31 04:04:58;;;;;;;;;;;6.20;99.90;;;;;;5098968;28;19919;-85
2024/01/31 04:07:24;;;;;;;;;;;6.10;99.90;;;;;;5098340;28;19957;-86
2024/01/31 04:09:49;;;;;;;;;;;6.10;99.90;;;;;;5098694;28;19911;-86
2024/01/31 04:12:15;;;;;;;;;;;6.10;99.90;;;;;;5098421;28;19924;-86
2024/01/31 04:14:41;;;;;;;;;;;6.00;99.90;;;;;;5097885;28;19920;-85
2024/01/31 04:17:06;;;;;;;;;;;6.00;99.90;;;;;;5096770;28;19919;-86
2024/01/31 04:19:32;;;;;;;;;;;6.00;99.90;;;;;;5097785;28;19912;-86
2024/01/31 04:21:57;;;;;;;;;;;5.90;99.90;;;;;;5097674;28;19925;-86
2024/01/31 04:24:23;;;;;;;;;;;5.90;99.90;;;;;;5097790;28;19923;-86
2024/01/31 04:26:48;;;;;;;;;;;5.80;99.90;;;;;;5097676;28;19908;-86
2024/01/31 04:29:14;;;;;;;;;;;5.80;99.90;;;;;;5098004;28;19911;-86
2024/01/31 04:31:40;;;;;;;;;;;5.70;99.90;;;;;;5098361;28;20653;-86
2024/01/31 04:34:05;;;;;;;;;;;5.70;99.90;;;;;;5115394;28;19931;-86
2024/01/31 04:36:31;;;;;;;;;;;5.70;99.90;;;;;;5115304;28;19912;-85
2024/01/31 04:38:58;;;;;;;;;;;5.70;99.90;;;;;;5098149;28;19915;-86
2024/01/31 04:41:24;;;;;;;;;;;5.70;99.90;;;;;;5098690;28;19918;-86
2024/01/31 04:43:49;;;;;;;;;;;5.70;99.90;;;;;;5098599;28;19912;-86
2024/01/31 04:46:15;;;;;;;;;;;5.70;99.90;;;;;;5115002;28;19916;-86
2024/01/31 04:48:40;;;;;;;;;;;5.60;99.90;;;;;;5092707;28;20288;-85
2024/01/31 04:51:06;;;;;;;;;;;5.70;99.90;;;;;;5113895;28;20367;-85
2024/01/31 04:53:31;;;;;;;;;;;5.70;99.90;;;;;;5097044;28;20674;-86
2024/01/31 04:55:57;;;;;;;;;;;5.60;99.90;;;;;;5097854;28;19918;-85
2024/01/31 04:58:23;;;;;;;;;;;5.70;99.90;;;;;;5098127;28;19912;-85
2024/01/31 05:00:48;;;;;;;;;;;5.70;99.90;;;;;;5097440;28;20252;-85
2024/01/31 05:03:14;;;;;;;;;;;5.70;99.90;;;;;;5114918;28;19907;-85
2024/01/31 05:05:39;;;;;;;;;;;5.70;99.90;;;;;;5097148;28;20018;-86
2024/01/31 05:08:05;;;;;;;;;;;5.70;99.90;;;;;;5097301;28;19927;-86
2024/01/31 05:10:33;;;;;;;;;;;5.70;99.90;;;;;;5096866;28;19922;-86
2024/01/31 05:12:59;;;;;;;;;;;5.70;99.90;;;;;;5097113;28;19916;-86
2024/01/31 05:15:25;;;;;;;;;;;5.60;99.90;;;;;;5097220;28;19923;-86
2024/01/31 05:17:50;;;;;;;;;;;5.60;99.90;;;;;;5097608;28;20664;-86
2024/01/31 05:20:47;;;;;;;;;;;5.50;99.90;;;;;;5097331;28;19929;-86
2024/01/31 05:23:12;;;;;;;;;;;5.60;99.90;;;;;;5097311;28;20860;-87
2024/01/31 05:25:38;;;;;;;;;;;5.60;99.90;;;;;;5097333;28;20002;-86
2024/01/31 05:28:04;;;;;;;;;;;5.50;99.90;;;;;;5097588;28;19919;-86
2024/01/31 05:30:29;;;;;;;;;;;5.50;99.90;;;;;;5096814;28;19969;-86
2024/01/31 05:32:55;;;;;;;;;;;5.50;99.90;;;;;;5096743;28;19919;-86
2024/01/31 05:35:20;;;;;;;;;;;5.50;99.90;;;;;;5095726;28;19952;-86
2024/01/31 05:37:46;;;;;;;;;;;5.40;99.90;;;;;;5096124;28;20367;-86
2024/01/31 05:40:16;;;;;;;;;;;5.40;99.90;;;;;;5097130;28;19966;-86
2024/01/31 05:42:42;;;;;;;;;;;5.30;99.90;;;;;;5096946;28;19916;-87
2024/01/31 05:45:08;;;;;;;;;;;5.30;99.90;;;;;;5097052;28;19935;-86
2024/01/31 05:47:34;;;;;;;;;;;5.20;99.90;;;;;;5096656;28;19915;-86
2024/01/31 05:49:59;;;;;;;;;;;5.20;99.90;;;;;;5113479;28;19958;-87
2024/01/31 05:52:25;;;;;;;;;;;5.10;99.90;;;;;;5092867;28;19920;-87
2024/01/31 05:54:51;;;;;;;;;;;5.10;99.90;;;;;;5113320;28;20038;-87
2024/01/31 05:57:16;;;;;;;;;;;5.10;99.90;;;;;;5095800;28;20323;-87
2024/01/31 05:59:42;;;;;;;;;;;5.10;99.90;;;;;;5095976;28;19915;-87
2024/01/31 06:02:07;;;;;;;;;;;5.10;99.90;;;;;;5095725;28;19915;-87
2024/01/31 06:04:33;;;;;;;;;;;5.00;99.90;;;;;;5096795;28;19908;-87
2024/01/31 06:06:58;;;;;;;;;;;5.00;99.90;;;;;;5113111;28;19916;-87
2024/01/31 06:09:24;;;;;;;;;;;5.00;99.90;;;;;;5096702;28;19912;-86
2024/01/31 06:11:49;;;;;;;;;;;5.00;99.90;;;;;;5096245;28;19912;-88
2024/01/31 06:14:15;;;;;;;;;;;5.00;99.90;;;;;;5113496;28;20350;-87
2024/01/31 06:16:41;;;;;;;;;;;4.90;99.90;;;;;;5113818;28;19916;-87
2024/01/31 06:19:08;;;;;;;;;;;4.90;99.90;;;;;;5096944;28;20011;-87
2024/01/31 06:21:34;;;;;;;;;;;4.80;99.90;;;;;;5096662;28;20382;-87
2024/01/31 06:23:59;;;;;;;;;;;4.70;99.90;;;;;;5096629;28;19926;-87
2024/01/31 06:26:28;;;;;;;;;;;4.60;99.90;;;;;;5096605;28;20018;-87
2024/01/31 06:28:54;;;;;;;;;;;4.50;99.90;;;;;;5096696;28;19918;-87
2024/01/31 06:31:27;;;;;;;;;;;4.30;99.90;;;;;;5096748;28;19915;-86
2024/01/31 06:33:53;;;;;;;;;;;4.20;99.90;;;;;;5096337;28;19919;-87
2024/01/31 06:36:22;;;;;;;;;;;4.10;99.90;;;;;;5095850;28;19919;-87
2024/01/31 06:38:48;;;;;;;;;;;3.90;99.90;;;;;;5096344;28;19919;-86
2024/01/31 06:41:14;;;;;;;;;;;3.80;99.90;;;;;;5095451;28;19920;-87
2024/01/31 06:43:40;;;;;;;;;;;3.70;99.90;;;;;;5095335;28;19915;-86
2024/01/31 06:46:05;;;;;;;;;;;3.60;99.90;;;;;;5095372;28;19938;-87
2024/01/31 06:48:31;;;;;;;;;;;3.60;99.90;;;;;;5096237;28;19922;-86
2024/01/31 06:50:57;;;;;;;;;;;3.60;99.90;;;;;;5095295;28;19991;-86
2024/01/31 06:53:22;;;;;;;;;;;3.70;99.90;;;;;;5112804;28;20610;-87
2024/01/31 06:55:48;;;;;;;;;;;3.60;99.90;;;;;;5112557;28;20283;-86
2024/01/31 06:58:13;;;;;;;;;;;3.40;99.90;;;;;;5095743;28;20363;-86
2024/01/31 07:00:39;;;;;;;;;;;3.30;99.90;;;;;;5095304;28;19915;-86
2024/01/31 07:03:04;;;;;;;;;;;3.10;99.90;;;;;;5100528;28;19915;-87
2024/01/31 07:05:30;;;;;;;;;;;3.00;99.90;;;;;;5099992;28;19908;-87
2024/01/31 07:07:56;;;;;;;;;;;2.90;99.90;;;;;;5118614;28;19965;-86
2024/01/31 07:10:21;;;;;;;;;;;2.90;99.90;;;;;;5100708;28;19960;-87
2024/01/31 07:12:47;;;;;;;;;;;2.90;99.90;;;;;;5099909;28;20532;-87
2024/01/31 07:15:14;;;;;;;;;;;2.80;99.90;;;;;;5100118;28;19967;-87
2024/01/31 07:17:40;;;;;;;;;;;2.80;99.90;;;;;;5118034;28;19916;-87
2024/01/31 07:20:06;;;;;;;;;;;2.60;99.90;;;;;;5099920;28;20282;-87
2024/01/31 07:22:32;;;;;;;;;;;2.60;99.90;;;;;;5099717;28;19912;-87
2024/01/31 07:24:57;;;;;;;;;;;2.50;99.90;;;;;;5099030;28;19918;-87
2024/01/31 07:27:23;;;;;;;;;;;2.50;99.90;;;;;;5098374;28;19912;-87
2024/01/31 07:29:48;;;;;;;;;;;2.50;99.90;;;;;;5099094;28;20418;-87
2024/01/31 07:32:14;;;;;;;;;;;2.60;99.90;;;;;;5098830;28;20347;-87
2024/01/31 07:34:39;;;;;;;;;;;2.70;99.90;;;;;;5117732;27;19920;-86
2024/01/31 07:37:05;;;;;;;;;;;2.90;99.90;;;;;;5098859;28;19915;-87
2024/01/31 07:39:31;;;;;;;;;;;3.00;99.90;;;;;;5098222;28;20568;-87
2024/01/31 07:41:57;;;;;;;;;;;3.30;99.90;;;;;;5098991;28;19915;-87
2024/01/31 07:47:51;;;;;;;;;;;3.60;99.90;;;;;;5118339;28;19937;-87
2024/01/31 07:50:17;;;;;;;;;;;3.60;99.90;;;;;;5102024;28;20002;-87
2024/01/31 07:52:42;;;;;;;;;;;3.80;99.90;;;;;;5098409;28;20298;-87
2024/01/31 07:55:10;;;;;;;;;;;3.90;99.90;;;;;;5098942;28;19916;-88
2024/01/31 07:57:35;;;;;;;;;;;3.90;99.90;;;;;;5098031;28;20441;-88
2024/01/31 08:00:03;;;;;;;;;;;4.10;99.90;;;;;;5098600;28;19962;-87
2024/01/31 08:02:30;;;;;;;;;;;4.10;99.90;;;;;;5099593;28;20010;-87
2024/01/31 08:04:55;;;;;;;;;;;4.20;99.90;;;;;;5098933;28;20363;-87
2024/01/31 08:07:21;;;;;;;;;;;4.30;99.90;;;;;;5099374;28;19951;-87
2024/01/31 08:10:09;;;;;;;;;;;4.40;99.90;;;;;;5116503;28;19912;-87
2024/01/31 08:12:35;;;;;;;;;;;4.50;99.90;;;;;;5114516;28;20014;-87
2024/01/31 08:15:00;;;;;;;;;;;4.60;99.90;;;;;;5098262;28;20375;-87
2024/01/31 08:17:26;;;;;;;;;;;4.70;99.90;;;;;;5097937;28;19999;-88
2024/01/31 08:19:52;;;;;;;;;;;4.60;99.90;;;;;;5098672;28;19947;-87
2024/01/31 08:22:18;;;;;;;;;;;4.80;99.90;;;;;;5098401;28;19958;-87
2024/01/31 08:24:44;;;;;;;;;;;4.80;99.90;;;;;;5132162;27;19912;-87
2024/01/31 08:27:09;;;;;;;;;;;4.90;99.90;;;;;;5098551;28;20003;-88
2024/01/31 08:29:35;;;;;;;;;;;4.90;99.90;;;;;;5098540;28;19976;-88
2024/01/31 08:32:00;;;;;;;;;;;4.90;99.90;;;;;;5099271;28;19912;-87
2024/01/31 08:34:26;;;;;;;;;;;5.10;99.90;;;;;;5097628;28;19920;-87
2024/01/31 08:36:52;;;;;;;;;;;5.20;99.90;;;;;;5115170;28;19923;-87
2024/01/31 08:39:18;;;;;;;;;;;5.30;99.90;;;;;;5098659;28;19919;-87
2024/01/31 08:41:47;;;;;;;;;;;5.40;99.90;;;;;;5099737;28;19915;-87
2024/01/31 08:44:14;;;;;;;;;;;5.50;99.90;;;;;;5098937;28;19918;-87
2024/01/31 08:46:40;;;;;;;;;;;5.60;99.90;;;;;;5103429;28;19912;-88
2024/01/31 08:49:06;;;;;;;;;;;5.60;99.90;;;;;;5104635;28;19985;-87
2024/01/31 08:51:33;;;;;;;;;;;5.70;99.90;;;;;;5103842;28;20368;-88
2024/01/31 08:53:58;;;;;;;;;;;5.80;99.90;;;;;;5105858;28;19916;-85
2024/01/31 08:56:24;;;;;;;;;;;5.80;99.90;;;;;;5122541;28;19915;-87
2024/01/31 08:58:50;;;;;;;;;;;5.90;99.90;;;;;;5099789;28;19918;-88
2024/01/31 09:01:15;;;;;;;;;;;5.90;99.90;;;;;;5098891;28;19945;-87
2024/01/31 09:03:41;;;;;;;;;;;6.00;99.90;;;;;;5099039;28;19915;-88
2024/01/31 09:06:25;;;;;;;;;;;6.10;99.90;;;;;;5098627;28;20362;-88
2024/01/31 09:08:50;;;;;;;;;;;6.30;99.90;;;;;;5098040;28;19912;-89
2024/01/31 09:11:16;;;;;;;;;;;6.40;99.90;;;;;;5098531;28;19919;-88
2024/01/31 09:13:42;;;;;;;;;;;6.60;99.90;;;;;;5100866;28;20362;-88
2024/01/31 09:16:11;;;;;;;;;;;6.60;99.90;;;;;;5100543;28;19925;-87
2024/01/31 09:18:36;;;;;;;;;;;6.70;99.90;;;;;;5100821;28;19926;-86
2024/01/31 09:21:02;;;;;;;;;;;6.70;99.90;;;;;;5097831;28;19915;-87
2024/01/31 09:23:27;;;;;;;;;;;6.60;99.90;;;;;;5097462;28;19916;-87
2024/01/31 09:25:53;;;;;;;;;;;6.60;99.90;;;;;;5097127;28;19919;-87
2024/01/31 09:28:19;;;;;;;;;;;6.70;99.90;;;;;;5114880;28;19939;-86
2024/01/31 09:30:45;;;;;;;;;;;6.70;99.90;;;;;;5081146;28;19912;-88
2024/01/31 09:33:11;;;;;;;;;;;6.60;99.90;;;;;;5098608;28;19922;-88
2024/01/31 09:35:36;;;;;;;;;;;6.80;99.90;;;;;;5098539;28;19912;-87
2024/01/31 09:38:02;;;;;;;;;;;6.90;99.90;;;;;;5098127;28;20290;-88
2024/01/31 09:40:28;;;;;;;;;;;6.90;99.90;;;;;;5100112;28;19926;-88
2024/01/31 09:42:54;;;;;;;;;;;6.80;99.90;;;;;;5099845;28;19988;-87
2024/01/31 09:45:21;;;;;;;;;;;7.00;99.90;;;;;;5097679;28;20054;-87
2024/01/31 09:47:47;;;;;;;;;;;7.10;99.90;;;;;;5098166;28;20315;-88
2024/01/31 09:50:13;;;;;;;;;;;7.10;99.90;;;;;;5097990;28;20387;-88
2024/01/31 09:52:39;;;;;;;;;;;7.00;99.90;;;;;;5097673;28;19919;-88
2024/01/31 09:55:07;;;;;;;;;;;7.10;99.90;;;;;;5097755;28;20267;-88
2024/01/31 09:57:33;;;;;;;;;;;6.90;99.90;;;;;;5097040;28;19912;-87
2024/01/31 10:00:00;;;;;;;;;;;6.70;99.90;;;;;;5097816;28;19915;-87
2024/01/31 10:02:27;;;;;;;;;;;6.70;99.90;;;;;;5098480;28;19919;-88
2024/01/31 10:04:58;;;;;;;;;;;6.70;99.90;;;;;;5098099;28;20026;-88
2024/01/31 10:07:33;;;;;;;;;;;6.70;99.90;;;;;;5097611;28;19923;-88
2024/01/31 10:09:59;;;;;;;;;;;6.80;99.90;;;;;;5114925;28;20026;-88
2024/01/31 10:12:25;;;;;;;;;;;6.80;99.90;;;;;;5096912;28;19937;-89
2024/01/31 10:14:51;;;;;;;;;;;7.00;99.90;;;;;;5096652;28;19916;-88
2024/01/31 10:17:20;;;;;;;;;;;7.00;99.90;;;;;;5097817;28;20006;-88
2024/01/31 10:19:46;;;;;;;;;;;7.00;99.90;;;;;;5097586;28;19942;-89
2024/01/31 10:22:12;;;;;;;;;;;7.20;99.90;;;;;;5097791;28;20302;-88
2024/01/31 10:24:38;;;;;;;;;;;7.40;99.90;;;;;;5096978;28;19942;-89
2024/01/31 10:27:06;;;;;;;;;;;7.40;99.90;;;;;;5097754;28;19916;-89
2024/01/31 10:29:36;;;;;;;;;;;7.40;99.90;;;;;;5097617;28;19970;-88
2024/01/31 10:32:03;;;;;;;;;;;7.50;99.90;;;;;;5098015;28;19912;-89
2024/01/31 10:34:29;;;;;;;;;;;7.50;99.90;;;;;;5116275;28;20599;-88
2024/01/31 10:36:55;;;;;;;;;;;7.70;99.90;;;;;;5097697;28;19915;-88
2024/01/31 10:39:21;;;;;;;;;;;7.80;99.90;;;;;;5098499;28;20355;-88
2024/01/31 10:41:50;;;;;;;;;;;7.90;99.90;;;;;;5101616;28;19916;-89
2024/01/31 10:44:16;;;;;;;;;;;7.80;99.90;;;;;;5099830;28;19915;-89
2024/01/31 10:46:43;;;;;;;;;;;7.90;99.90;;;;;;5098811;28;19915;-89
2024/01/31 10:49:11;;;;;;;;;;;8.20;99.90;;;;;;5100215;28;20016;-90
2024/01/31 10:51:37;;;;;;;;;;;8.70;99.90;;;;;;5101462;28;19932;-89
2024/01/31 10:54:16;;;;;;;;;;;8.90;99.90;;;;;;5082253;28;20259;-89
2024/01/31 10:56:48;;;;;;;;;;;8.80;99.90;;;;;;5100793;28;19912;-89
2024/01/31 10:59:32;;;;;;;;;;;8.60;99.90;;;;;;5101225;28;20013;-89
2024/01/31 11:01:59;;;;;;;;;;;8.80;99.90;;;;;;5117203;28;19908;-90
2024/01/31 11:04:24;;;;;;;;;;;8.90;99.90;;;;;;5098995;28;19915;-88
2024/01/31 11:06:50;;;;;;;;;;;9.10;99.90;;;;;;5098494;28;19915;-89
2024/01/31 11:09:16;;;;;;;;;;;8.90;99.90;;;;;;5113057;28;19916;-89
2024/01/31 11:11:42;;;;;;;;;;;9.00;99.90;;;;;;5098057;28;20260;-89
2024/01/31 11:14:12;;;;;;;;;;;9.10;99.90;;;;;;5097185;28;19934;-89
2024/01/31 11:16:38;;;;;;;;;;;9.20;99.90;;;;;;5097002;28;19912;-88
2024/01/31 11:19:03;;;;;;;;;;;9.20;99.90;;;;;;5132316;28;19915;-87
2024/01/31 11:21:38;;;;;;;;;;;8.90;99.90;;;;;;5098528;28;19911;-88
2024/01/31 11:24:04;;;;;;;;;;;8.80;99.90;;;;;;5098034;28;19911;-88
2024/01/31 11:27:02;;;;;;;;;;;8.80;99.90;;;;;;5097793;28;19909;-88
2024/01/31 11:29:29;;;;;;;;;;;8.70;99.90;;;;;;5097606;28;20274;-88
2024/01/31 11:31:55;;;;;;;;;;;8.70;99.90;;;;;;5098029;28;20363;-89
2024/01/31 11:34:21;;;;;;;;;;;8.50;99.90;;;;;;5097952;28;19912;-88
2024/01/31 11:36:46;;;;;;;;;;;8.20;99.90;;;;;;5097942;28;19912;-88
2024/01/31 11:39:12;;;;;;;;;;;8.00;99.90;;;;;;5132249;28;19926;-88
2024/01/31 11:41:37;;;;;;;;;;;8.00;99.90;;;;;;5098507;28;19912;-88
2024/01/31 11:44:03;;;;;;;;;;;8.00;99.90;;;;;;5098834;28;19916;-88
2024/01/31 11:46:29;;;;;;;;;;;8.20;99.90;;;;;;5098637;28;19912;-87
2024/01/31 11:48:55;;;;;;;;;;;8.40;99.90;;;;;;5101801;28;19912;-88
2024/01/31 11:51:20;;;;;;;;;;;8.60;99.90;;;;;;5101957;28;19915;-88
2024/01/31 11:53:46;;;;;;;;;;;8.70;99.90;;;;;;5102113;28;19916;-89
2024/01/31 11:56:12;;;;;;;;;;;8.70;99.90;;;;;;5137637;27;19953;-87
2024/01/31 11:58:38;;;;;;;;;;;8.60;99.90;;;;;;5120989;28;20355;-88
2024/01/31 12:01:22;;;;;;;;;;;8.60;99.90;;;;;;5117424;28;19912;-88
2024/01/31 12:03:47;;;;;;;;;;;8.50;99.90;;;;;;5101653;28;19916;-88
2024/01/31 12:06:16;;;;;;;;;;;8.60;99.90;;;;;;5101657;28;20586;-89
2024/01/31 12:08:46;;;;;;;;;;;8.60;99.90;;;;;;5118473;28;19911;-89
2024/01/31 12:11:13;;;;;;;;;;;8.70;99.90;;;;;;5135553;27;19916;-88
2024/01/31 12:13:39;;;;;;;;;;;8.60;99.90;;;;;;5118938;28;20295;-89
2024/01/31 12:16:05;;;;;;;;;;;8.40;99.90;;;;;;5101357;28;20390;-88
2024/01/31 12:18:30;;;;;;;;;;;8.30;99.90;;;;;;5100201;28;19919;-89
2024/01/31 12:21:00;;;;;;;;;;;8.40;99.90;;;;;;5116852;28;19920;-89
2024/01/31 12:23:25;;;;;;;;;;;8.20;99.90;;;;;;5101153;28;19916;-89
2024/01/31 12:25:51;;;;;;;;;;;8.20;99.90;;;;;;5101131;28;20366;-89
2024/01/31 12:28:17;;;;;;;;;;;8.00;99.90;;;;;;5100915;28;20275;-88
2024/01/31 12:30:42;;;;;;;;;;;8.10;99.90;;;;;;5101296;28;19919;-89
2024/01/31 12:33:26;;;;;;;;;;;8.20;99.90;;;;;;5118030;28;20313;-89
2024/01/31 12:35:52;;;;;;;;;;;8.30;99.90;;;;;;5134431;27;20019;-89
2024/01/31 12:38:18;;;;;;;;;;;8.40;99.90;;;;;;5100667;28;19969;-89
2024/01/31 12:40:44;;;;;;;;;;;8.40;99.90;;;;;;5101491;28;19918;-89
2024/01/31 12:43:10;;;;;;;;;;;8.40;99.90;;;;;;5101459;28;19938;-88
2024/01/31 12:45:35;;;;;;;;;;;8.50;99.90;;;;;;5101038;28;19927;-88
2024/01/31 12:48:01;;;;;;;;;;;8.20;99.90;;;;;;5100892;28;19912;-88
2024/01/31 12:50:27;;;;;;;;;;;8.10;99.90;;;;;;5100968;28;19912;-87
2024/01/31 12:52:53;;;;;;;;;;;8.30;99.90;;;;;;5101061;28;20287;-88
2024/01/31 12:55:18;;;;;;;;;;;8.20;99.90;;;;;;5101019;28;19916;-88
2024/01/31 12:57:44;;;;;;;;;;;8.10;99.90;;;;;;5119420;28;19912;-88
2024/01/31 13:00:10;;;;;;;;;;;8.20;99.90;;;;;;5101096;28;19916;-88
2024/01/31 13:02:36;;;;;;;;;;;8.00;99.90;;;;;;5101664;28;19912;-88
2024/01/31 13:05:01;;;;;;;;;;;8.20;99.90;;;;;;5101614;28;19915;-88
2024/01/31 13:07:27;;;;;;;;;;;8.20;99.90;;;;;;5100745;28;19923;-89
2024/01/31 13:09:52;;;;;;;;;;;8.40;99.90;;;;;;5100713;28;19912;-90
2024/01/31 13:12:18;;;;;;;;;;;8.50;99.90;;;;;;5101138;28;19921;-89
2024/01/31 13:14:44;;;;;;;;;;;8.60;99.90;;;;;;5100913;28;20007;-89
2024/01/31 13:17:09;;;;;;;;;;;8.70;99.90;;;;;;5100801;28;19911;-89
2024/01/31 13:19:35;;;;;;;;;;;8.70;99.90;;;;;;5100733;28;19916;-89
2024/01/31 13:22:02;;;;;;;;;;;8.60;99.90;;;;;;5100311;28;20323;-88
2024/01/31 13:24:27;;;;;;;;;;;8.50;99.90;;;;;;5100660;28;19957;-89
2024/01/31 13:26:53;;;;;;;;;;;8.70;99.90;;;;;;5100452;28;19916;-89
2024/01/31 13:29:20;;;;;;;;;;;8.90;99.90;;;;;;5100285;28;19918;-89
2024/01/31 13:31:46;;;;;;;;;;;8.80;99.90;;;;;;5101108;28;19923;-90
2024/01/31 13:34:12;;;;;;;;;;;8.60;99.90;;;;;;5101041;28;19920;-89
2024/01/31 13:36:37;;;;;;;;;;;8.50;99.90;;;;;;5101210;28;20363;-89
2024/01/31 13:39:03;;;;;;;;;;;8.40;99.90;;;;;;5101015;28;19916;-89
2024/01/31 13:41:29;;;;;;;;;;;8.20;99.90;;;;;;5101618;28;19916;-89
2024/01/31 13:43:54;;;;;;;;;;;8.10;99.90;;;;;;5118019;28;19930;-89
2024/01/31 13:46:20;;;;;;;;;;;7.90;99.90;;;;;;5100274;28;19912;-89
2024/01/31 13:48:45;;;;;;;;;;;8.00;99.90;;;;;;5101451;28;20010;-89
2024/01/31 13:51:13;;;;;;;;;;;7.80;99.90;;;;;;5100376;28;20447;-90
2024/01/31 13:53:39;;;;;;;;;;;7.70;99.90;;;;;;5100347;28;19916;-90
2024/01/31 13:56:06;;;;;;;;;;;7.50;99.90;;;;;;5101441;28;19896;-90
2024/01/31 13:58:32;;;;;;;;;;;7.40;99.90;;;;;;5101294;28;19908;-90
2024/01/31 14:00:59;;;;;;;;;;;7.30;99.90;;;;;;5100089;28;20495;-89
2024/01/31 14:03:25;;;;;;;;;;;7.40;99.90;;;;;;5100695;28;19915;-89
2024/01/31 14:05:51;;;;;;;;;;;7.60;99.90;;;;;;5117683;28;19966;-90
2024/01/31 14:08:16;;;;;;;;;;;7.60;99.90;;;;;;5100800;28;19915;-90
2024/01/31 14:10:42;;;;;;;;;;;7.60;99.90;;;;;;5100077;28;19960;-89
2024/01/31 14:13:07;;;;;;;;;;;7.60;99.90;;;;;;5100648;28;19961;-89
2024/01/31 14:15:33;;;;;;;;;;;7.50;99.90;;;;;;5101111;28;19923;-90
2024/01/31 14:17:58;;;;;;;;;;;7.40;99.90;;;;;;5117786;28;19940;-90
2024/01/31 14:20:39;;;;;;;;;;;7.20;99.90;;;;;;5099660;28;19943;-90
2024/01/31 14:23:05;;;;;;;;;;;7.00;99.90;;;;;;5099886;28;19925;-89
2024/01/31 14:25:31;;;;;;;;;;;6.90;99.90;;;;;;5116648;28;20016;-89
2024/01/31 14:27:57;;;;;;;;;;;6.80;99.90;;;;;;5100417;28;19911;-89
2024/01/31 14:30:22;;;;;;;;;;;6.80;99.90;;;;;;5100998;28;19920;-91
2024/01/31 14:32:48;;;;;;;;;;;6.80;99.90;;;;;;5099952;28;19918;-89